sensor_id;sensor_type;location;lat;lon;timestamp;P1;durP1;ratioP1;P2;durP2;ratioP2
21941;SDS011;11135;54.192;15.670;2023-09-19T00:00:48;7.13;;;3.80;;
21941;SDS011;11135;54.192;15.670;2023-09-19T00:04:16;6.88;;;3.88;;
21941;SDS011;11135;54.192;15.670;2023-09-19T00:07:48;8.93;;;3.55;;
21941;SDS011;11135;54.192;15.670;2023-09-19T00:11:14;9.25;;;4.72;;
21941;SDS011;11135;54.192;15.670;2023-09-19T00:14:42;5.97;;;3.67;;
21941;SDS011;11135;54.192;15.670;2023-09-19T00:18:08;8.77;;;4.22;;
21941;SDS011;11135;54.192;15.670;2023-09-19T00:21:34;8.75;;;3.63;;
21941;SDS011;11135;54.192;15.670;2023-09-19T00:25:03;9.88;;;3.90;;
21941;SDS011;11135;54.192;15.670;2023-09-19T00:28:30;6.50;;;3.38;;
21941;SDS011;11135;54.192;15.670;2023-09-19T00:31:58;6.57;;;4.72;;
21941;SDS011;11135;54.192;15.670;2023-09-19T00:35:25;7.95;;;4.00;;
21941;SDS011;11135;54.192;15.670;2023-09-19T00:38:51;7.28;;;3.92;;
21941;SDS011;11135;54.192;15.670;2023-09-19T00:42:21;7.70;;;3.35;;
21941;SDS011;11135;54.192;15.670;2023-09-19T00:45:49;8.50;;;3.90;;
21941;SDS011;11135;54.192;15.670;2023-09-19T00:49:15;5.57;;;3.30;;
21941;SDS011;11135;54.192;15.670;2023-09-19T00:52:45;5.53;;;3.45;;
21941;SDS011;11135;54.192;15.670;2023-09-19T00:56:12;10.30;;;3.47;;
21941;SDS011;11135;54.192;15.670;2023-09-19T00:59:44;6.63;;;4.00;;
21941;SDS011;11135;54.192;15.670;2023-09-19T01:03:10;8.73;;;3.28;;
21941;SDS011;11135;54.192;15.670;2023-09-19T01:06:37;5.57;;;3.33;;
21941;SDS011;11135;54.192;15.670;2023-09-19T01:10:03;8.18;;;3.00;;
21941;SDS011;11135;54.192;15.670;2023-09-19T01:13:35;7.50;;;3.03;;
21941;SDS011;11135;54.192;15.670;2023-09-19T01:17:09;7.28;;;3.30;;
21941;SDS011;11135;54.192;15.670;2023-09-19T01:20:45;6.07;;;3.10;;
21941;SDS011;11135;54.192;15.670;2023-09-19T01:24:25;6.07;;;3.22;;
21941;SDS011;11135;54.192;15.670;2023-09-19T01:28:13;4.97;;;3.15;;
21941;SDS011;11135;54.192;15.670;2023-09-19T01:31:44;5.00;;;3.42;;
21941;SDS011;11135;54.192;15.670;2023-09-19T01:35:10;6.57;;;2.97;;
21941;SDS011;11135;54.192;15.670;2023-09-19T01:38:36;5.57;;;2.67;;
21941;SDS011;11135;54.192;15.670;2023-09-19T01:42:05;6.72;;;3.50;;
21941;SDS011;11135;54.192;15.670;2023-09-19T01:45:37;6.53;;;3.10;;
21941;SDS011;11135;54.192;15.670;2023-09-19T01:49:18;7.20;;;3.10;;
21941;SDS011;11135;54.192;15.670;2023-09-19T01:52:48;6.45;;;3.10;;
21941;SDS011;11135;54.192;15.670;2023-09-19T01:56:16;7.60;;;3.25;;
21941;SDS011;11135;54.192;15.670;2023-09-19T01:59:45;5.35;;;3.03;;
21941;SDS011;11135;54.192;15.670;2023-09-19T02:03:14;3.88;;;2.58;;
21941;SDS011;11135;54.192;15.670;2023-09-19T02:06:43;5.38;;;2.85;;
21941;SDS011;11135;54.192;15.670;2023-09-19T02:10:11;7.45;;;2.95;;
21941;SDS011;11135;54.192;15.670;2023-09-19T02:13:37;4.10;;;2.70;;
21941;SDS011;11135;54.192;15.670;2023-09-19T02:17:04;7.88;;;3.05;;
21941;SDS011;11135;54.192;15.670;2023-09-19T02:20:35;4.80;;;2.85;;
21941;SDS011;11135;54.192;15.670;2023-09-19T02:24:04;8.88;;;2.58;;
21941;SDS011;11135;54.192;15.670;2023-09-19T02:27:32;6.75;;;2.55;;
21941;SDS011;11135;54.192;15.670;2023-09-19T02:30:58;6.22;;;2.88;;
21941;SDS011;11135;54.192;15.670;2023-09-19T02:34:24;5.60;;;2.65;;
21941;SDS011;11135;54.192;15.670;2023-09-19T02:37:50;5.32;;;2.72;;
21941;SDS011;11135;54.192;15.670;2023-09-19T02:41:19;7.35;;;3.08;;
21941;SDS011;11135;54.192;15.670;2023-09-19T02:44:45;7.10;;;2.63;;
21941;SDS011;11135;54.192;15.670;2023-09-19T02:48:12;6.70;;;2.38;;
21941;SDS011;11135;54.192;15.670;2023-09-19T02:51:39;6.05;;;3.15;;
21941;SDS011;11135;54.192;15.670;2023-09-19T02:55:06;4.43;;;2.70;;
21941;SDS011;11135;54.192;15.670;2023-09-19T02:58:35;4.90;;;2.80;;
21941;SDS011;11135;54.192;15.670;2023-09-19T03:02:01;4.15;;;2.40;;
21941;SDS011;11135;54.192;15.670;2023-09-19T03:05:28;5.70;;;2.53;;
21941;SDS011;11135;54.192;15.670;2023-09-19T03:08:55;6.05;;;2.42;;
21941;SDS011;11135;54.192;15.670;2023-09-19T03:12:22;5.55;;;2.60;;
21941;SDS011;11135;54.192;15.670;2023-09-19T03:15:53;4.97;;;2.40;;
21941;SDS011;11135;54.192;15.670;2023-09-19T03:19:21;5.28;;;2.58;;
21941;SDS011;11135;54.192;15.670;2023-09-19T03:22:48;4.20;;;2.30;;
21941;SDS011;11135;54.192;15.670;2023-09-19T03:26:15;7.65;;;2.63;;
21941;SDS011;11135;54.192;15.670;2023-09-19T03:29:42;7.10;;;3.20;;
21941;SDS011;11135;54.192;15.670;2023-09-19T03:33:11;7.43;;;3.38;;
21941;SDS011;11135;54.192;15.670;2023-09-19T03:36:37;5.00;;;2.60;;
21941;SDS011;11135;54.192;15.670;2023-09-19T03:40:03;4.60;;;2.70;;
21941;SDS011;11135;54.192;15.670;2023-09-19T03:43:29;5.65;;;2.80;;
21941;SDS011;11135;54.192;15.670;2023-09-19T03:46:55;5.22;;;2.78;;
21941;SDS011;11135;54.192;15.670;2023-09-19T03:50:24;6.15;;;2.47;;
21941;SDS011;11135;54.192;15.670;2023-09-19T03:53:50;6.07;;;3.00;;
21941;SDS011;11135;54.192;15.670;2023-09-19T03:57:15;9.85;;;3.83;;
21941;SDS011;11135;54.192;15.670;2023-09-19T04:00:43;8.07;;;4.00;;
21941;SDS011;11135;54.192;15.670;2023-09-19T04:04:10;6.10;;;3.60;;
21941;SDS011;11135;54.192;15.670;2023-09-19T04:07:41;7.93;;;3.63;;
21941;SDS011;11135;54.192;15.670;2023-09-19T04:11:06;9.27;;;3.47;;
21941;SDS011;11135;54.192;15.670;2023-09-19T04:14:32;7.63;;;3.05;;
21941;SDS011;11135;54.192;15.670;2023-09-19T04:17:58;6.07;;;2.80;;
21941;SDS011;11135;54.192;15.670;2023-09-19T04:21:26;8.18;;;3.75;;
21941;SDS011;11135;54.192;15.670;2023-09-19T04:24:54;5.80;;;2.83;;
21941;SDS011;11135;54.192;15.670;2023-09-19T04:28:21;7.03;;;3.20;;
21941;SDS011;11135;54.192;15.670;2023-09-19T04:31:47;6.28;;;3.10;;
21941;SDS011;11135;54.192;15.670;2023-09-19T04:35:13;6.35;;;3.20;;
21941;SDS011;11135;54.192;15.670;2023-09-19T04:38:38;6.82;;;3.28;;
21941;SDS011;11135;54.192;15.670;2023-09-19T04:42:11;5.75;;;3.42;;
21941;SDS011;11135;54.192;15.670;2023-09-19T04:45:38;6.43;;;3.30;;
21941;SDS011;11135;54.192;15.670;2023-09-19T04:49:04;8.55;;;3.17;;
21941;SDS011;11135;54.192;15.670;2023-09-19T04:52:30;6.20;;;4.20;;
21941;SDS011;11135;54.192;15.670;2023-09-19T04:55:56;6.78;;;2.95;;
21941;SDS011;11135;54.192;15.670;2023-09-19T04:59:24;5.43;;;3.30;;
21941;SDS011;11135;54.192;15.670;2023-09-19T05:02:51;7.35;;;3.50;;
21941;SDS011;11135;54.192;15.670;2023-09-19T05:06:19;9.77;;;3.80;;
21941;SDS011;11135;54.192;15.670;2023-09-19T05:09:46;7.32;;;3.08;;
21941;SDS011;11135;54.192;15.670;2023-09-19T05:13:12;6.22;;;3.25;;
21941;SDS011;11135;54.192;15.670;2023-09-19T05:16:42;5.70;;;2.85;;
21941;SDS011;11135;54.192;15.670;2023-09-19T05:20:09;6.10;;;3.35;;
21941;SDS011;11135;54.192;15.670;2023-09-19T05:23:47;9.23;;;4.97;;
21941;SDS011;11135;54.192;15.670;2023-09-19T05:27:12;5.53;;;2.72;;
21941;SDS011;11135;54.192;15.670;2023-09-19T05:30:39;6.38;;;3.45;;
21941;SDS011;11135;54.192;15.670;2023-09-19T05:34:12;10.05;;;3.63;;
21941;SDS011;11135;54.192;15.670;2023-09-19T05:37:38;9.23;;;3.38;;
21941;SDS011;11135;54.192;15.670;2023-09-19T05:41:05;6.68;;;3.83;;
21941;SDS011;11135;54.192;15.670;2023-09-19T05:44:31;8.25;;;3.47;;
21941;SDS011;11135;54.192;15.670;2023-09-19T05:48:05;7.60;;;3.45;;
21941;SDS011;11135;54.192;15.670;2023-09-19T05:51:35;6.53;;;3.28;;
21941;SDS011;11135;54.192;15.670;2023-09-19T05:55:00;5.38;;;3.10;;
21941;SDS011;11135;54.192;15.670;2023-09-19T05:58:28;6.07;;;2.88;;
21941;SDS011;11135;54.192;15.670;2023-09-19T06:01:53;9.65;;;3.88;;
21941;SDS011;11135;54.192;15.670;2023-09-19T06:05:19;7.90;;;3.78;;
21941;SDS011;11135;54.192;15.670;2023-09-19T06:08:48;6.45;;;3.33;;
21941;SDS011;11135;54.192;15.670;2023-09-19T06:12:14;6.65;;;3.78;;
21941;SDS011;11135;54.192;15.670;2023-09-19T06:15:41;7.22;;;3.60;;
21941;SDS011;11135;54.192;15.670;2023-09-19T06:19:09;5.63;;;3.28;;
21941;SDS011;11135;54.192;15.670;2023-09-19T06:22:36;5.65;;;3.13;;
21941;SDS011;11135;54.192;15.670;2023-09-19T06:26:08;6.20;;;3.10;;
21941;SDS011;11135;54.192;15.670;2023-09-19T06:29:35;9.02;;;3.20;;
21941;SDS011;11135;54.192;15.670;2023-09-19T06:33:02;6.40;;;3.38;;
21941;SDS011;11135;54.192;15.670;2023-09-19T06:36:29;6.18;;;3.13;;
21941;SDS011;11135;54.192;15.670;2023-09-19T06:39:55;5.13;;;2.75;;
21941;SDS011;11135;54.192;15.670;2023-09-19T06:43:23;6.75;;;3.08;;
21941;SDS011;11135;54.192;15.670;2023-09-19T06:46:49;5.68;;;2.90;;
21941;SDS011;11135;54.192;15.670;2023-09-19T06:50:15;5.95;;;3.00;;
21941;SDS011;11135;54.192;15.670;2023-09-19T06:53:45;7.75;;;2.72;;
21941;SDS011;11135;54.192;15.670;2023-09-19T06:57:11;5.05;;;2.63;;
21941;SDS011;11135;54.192;15.670;2023-09-19T07:00:41;8.25;;;2.63;;
21941;SDS011;11135;54.192;15.670;2023-09-19T07:04:06;7.45;;;3.42;;
21941;SDS011;11135;54.192;15.670;2023-09-19T07:07:33;3.63;;;2.30;;
21941;SDS011;11135;54.192;15.670;2023-09-19T07:10:59;6.40;;;2.30;;
21941;SDS011;11135;54.192;15.670;2023-09-19T07:14:29;3.25;;;1.90;;
21941;SDS011;11135;54.192;15.670;2023-09-19T07:17:57;5.18;;;2.15;;
21941;SDS011;11135;54.192;15.670;2023-09-19T07:21:23;8.60;;;2.30;;
21941;SDS011;11135;54.192;15.670;2023-09-19T07:24:50;3.65;;;1.65;;
21941;SDS011;11135;54.192;15.670;2023-09-19T07:28:16;5.75;;;1.88;;
21941;SDS011;11135;54.192;15.670;2023-09-19T07:31:42;5.20;;;2.00;;
21941;SDS011;11135;54.192;15.670;2023-09-19T07:35:12;6.13;;;2.00;;
21941;SDS011;11135;54.192;15.670;2023-09-19T07:38:37;4.63;;;2.10;;
21941;SDS011;11135;54.192;15.670;2023-09-19T07:42:06;3.03;;;1.70;;
21941;SDS011;11135;54.192;15.670;2023-09-19T07:45:33;3.03;;;1.92;;
21941;SDS011;11135;54.192;15.670;2023-09-19T07:49:00;4.72;;;2.10;;
21941;SDS011;11135;54.192;15.670;2023-09-19T07:52:29;3.25;;;1.80;;
21941;SDS011;11135;54.192;15.670;2023-09-19T07:56:01;5.30;;;1.85;;
21941;SDS011;11135;54.192;15.670;2023-09-19T07:59:27;4.03;;;1.75;;
21941;SDS011;11135;54.192;15.670;2023-09-19T08:02:53;2.42;;;1.90;;
21941;SDS011;11135;54.192;15.670;2023-09-19T08:06:25;5.03;;;1.85;;
21941;SDS011;11135;54.192;15.670;2023-09-19T08:09:56;3.03;;;1.65;;
21941;SDS011;11135;54.192;15.670;2023-09-19T08:13:22;5.60;;;1.80;;
21941;SDS011;11135;54.192;15.670;2023-09-19T08:16:48;3.85;;;1.67;;
21941;SDS011;11135;54.192;15.670;2023-09-19T08:20:14;3.53;;;2.22;;
21941;SDS011;11135;54.192;15.670;2023-09-19T08:23:42;6.70;;;1.88;;
21941;SDS011;11135;54.192;15.670;2023-09-19T08:27:10;2.72;;;1.70;;
21941;SDS011;11135;54.192;15.670;2023-09-19T08:30:36;4.75;;;1.70;;
21941;SDS011;11135;54.192;15.670;2023-09-19T08:34:03;5.45;;;1.85;;
21941;SDS011;11135;54.192;15.670;2023-09-19T08:37:29;3.17;;;2.08;;
21941;SDS011;11135;54.192;15.670;2023-09-19T08:40:56;5.47;;;1.80;;
21941;SDS011;11135;54.192;15.670;2023-09-19T08:44:25;4.90;;;1.55;;
21941;SDS011;11135;54.192;15.670;2023-09-19T08:47:54;4.10;;;1.88;;
21941;SDS011;11135;54.192;15.670;2023-09-19T08:51:26;4.00;;;2.28;;
21941;SDS011;11135;54.192;15.670;2023-09-19T08:54:52;3.72;;;1.60;;
21941;SDS011;11135;54.192;15.670;2023-09-19T08:58:20;2.70;;;1.48;;
21941;SDS011;11135;54.192;15.670;2023-09-19T09:01:50;5.00;;;1.83;;
21941;SDS011;11135;54.192;15.670;2023-09-19T09:05:18;2.47;;;1.60;;
21941;SDS011;11135;54.192;15.670;2023-09-19T09:08:45;4.93;;;1.80;;
21941;SDS011;11135;54.192;15.670;2023-09-19T09:12:11;3.45;;;1.50;;
21941;SDS011;11135;54.192;15.670;2023-09-19T09:15:38;4.65;;;1.65;;
21941;SDS011;11135;54.192;15.670;2023-09-19T09:19:07;2.15;;;1.45;;
21941;SDS011;11135;54.192;15.670;2023-09-19T09:22:33;1.90;;;1.10;;
21941;SDS011;11135;54.192;15.670;2023-09-19T09:26:02;2.70;;;1.50;;
21941;SDS011;11135;54.192;15.670;2023-09-19T09:29:39;4.00;;;1.65;;
21941;SDS011;11135;54.192;15.670;2023-09-19T09:33:10;4.30;;;1.70;;
21941;SDS011;11135;54.192;15.670;2023-09-19T09:36:39;3.65;;;1.83;;
21941;SDS011;11135;54.192;15.670;2023-09-19T09:40:07;4.45;;;1.73;;
21941;SDS011;11135;54.192;15.670;2023-09-19T09:43:58;3.17;;;1.63;;
21941;SDS011;11135;54.192;15.670;2023-09-19T09:47:41;3.53;;;1.70;;
21941;SDS011;11135;54.192;15.670;2023-09-19T09:51:04;5.78;;;2.97;;
21941;SDS011;11135;54.192;15.670;2023-09-19T09:54:35;7.75;;;2.53;;
21941;SDS011;11135;54.192;15.670;2023-09-19T09:58:15;6.40;;;2.33;;
21941;SDS011;11135;54.192;15.670;2023-09-19T10:01:46;3.97;;;1.95;;
21941;SDS011;11135;54.192;15.670;2023-09-19T10:05:13;6.47;;;2.40;;
21941;SDS011;11135;54.192;15.670;2023-09-19T10:08:57;4.90;;;1.40;;
21941;SDS011;11135;54.192;15.670;2023-09-19T10:12:26;4.75;;;1.88;;
21941;SDS011;11135;54.192;15.670;2023-09-19T10:15:55;4.00;;;2.08;;
21941;SDS011;11135;54.192;15.670;2023-09-19T10:19:28;5.32;;;2.42;;
21941;SDS011;11135;54.192;15.670;2023-09-19T10:22:57;4.80;;;1.70;;
21941;SDS011;11135;54.192;15.670;2023-09-19T10:26:23;7.50;;;2.20;;
21941;SDS011;11135;54.192;15.670;2023-09-19T10:29:55;3.40;;;1.90;;
21941;SDS011;11135;54.192;15.670;2023-09-19T10:33:24;5.22;;;1.85;;
21941;SDS011;11135;54.192;15.670;2023-09-19T10:36:52;3.55;;;1.80;;
21941;SDS011;11135;54.192;15.670;2023-09-19T10:40:22;3.35;;;2.00;;
21941;SDS011;11135;54.192;15.670;2023-09-19T10:43:55;3.75;;;1.90;;
21941;SDS011;11135;54.192;15.670;2023-09-19T10:47:24;3.42;;;2.03;;
21941;SDS011;11135;54.192;15.670;2023-09-19T10:50:52;4.10;;;1.90;;
21941;SDS011;11135;54.192;15.670;2023-09-19T10:54:23;5.05;;;1.92;;
21941;SDS011;11135;54.192;15.670;2023-09-19T10:57:52;3.92;;;1.70;;
21941;SDS011;11135;54.192;15.670;2023-09-19T11:01:43;7.07;;;1.85;;
21941;SDS011;11135;54.192;15.670;2023-09-19T11:05:14;2.92;;;1.63;;
21941;SDS011;11135;54.192;15.670;2023-09-19T11:08:52;3.40;;;1.85;;
21941;SDS011;11135;54.192;15.670;2023-09-19T11:16:10;6.32;;;2.35;;
21941;SDS011;11135;54.192;15.670;2023-09-19T11:23:41;9.20;;;2.30;;
21941;SDS011;11135;54.192;15.670;2023-09-19T11:27:16;4.75;;;1.90;;
21941;SDS011;11135;54.192;15.670;2023-09-19T11:30:43;5.10;;;1.60;;
21941;SDS011;11135;54.192;15.670;2023-09-19T11:41:43;7.25;;;1.92;;
21941;SDS011;11135;54.192;15.670;2023-09-19T11:49:09;3.70;;;1.77;;
21941;SDS011;11135;54.192;15.670;2023-09-19T11:52:39;4.97;;;1.63;;
21941;SDS011;11135;54.192;15.670;2023-09-19T11:56:07;5.55;;;1.73;;
21941;SDS011;11135;54.192;15.670;2023-09-19T11:59:38;5.50;;;2.22;;
21941;SDS011;11135;54.192;15.670;2023-09-19T12:03:05;5.18;;;1.67;;
21941;SDS011;11135;54.192;15.670;2023-09-19T12:06:33;7.20;;;1.65;;
21941;SDS011;11135;54.192;15.670;2023-09-19T12:10:05;4.97;;;1.40;;
21941;SDS011;11135;54.192;15.670;2023-09-19T12:13:34;5.78;;;1.85;;
21941;SDS011;11135;54.192;15.670;2023-09-19T12:17:03;4.15;;;1.55;;
21941;SDS011;11135;54.192;15.670;2023-09-19T12:20:41;4.50;;;1.80;;
21941;SDS011;11135;54.192;15.670;2023-09-19T12:24:12;4.70;;;1.40;;
21941;SDS011;11135;54.192;15.670;2023-09-19T12:27:42;3.83;;;1.80;;
21941;SDS011;11135;54.192;15.670;2023-09-19T12:31:09;7.53;;;1.90;;
21941;SDS011;11135;54.192;15.670;2023-09-19T12:34:38;3.40;;;1.70;;
21941;SDS011;11135;54.192;15.670;2023-09-19T12:38:07;6.55;;;1.90;;
21941;SDS011;11135;54.192;15.670;2023-09-19T12:41:34;4.38;;;1.80;;
21941;SDS011;11135;54.192;15.670;2023-09-19T12:45:00;7.10;;;1.77;;
21941;SDS011;11135;54.192;15.670;2023-09-19T12:48:26;5.28;;;1.70;;
21941;SDS011;11135;54.192;15.670;2023-09-19T12:52:00;7.07;;;1.80;;
21941;SDS011;11135;54.192;15.670;2023-09-19T12:55:26;9.15;;;2.25;;
21941;SDS011;11135;54.192;15.670;2023-09-19T12:58:56;4.47;;;1.80;;
21941;SDS011;11135;54.192;15.670;2023-09-19T13:02:24;2.97;;;1.70;;
21941;SDS011;11135;54.192;15.670;2023-09-19T13:05:52;5.95;;;2.05;;
21941;SDS011;11135;54.192;15.670;2023-09-19T13:09:23;3.67;;;1.75;;
21941;SDS011;11135;54.192;15.670;2023-09-19T13:12:58;8.15;;;1.60;;
21941;SDS011;11135;54.192;15.670;2023-09-19T13:16:56;5.03;;;2.10;;
21941;SDS011;11135;54.192;15.670;2023-09-19T13:20:26;6.00;;;1.30;;
21941;SDS011;11135;54.192;15.670;2023-09-19T13:23:55;4.28;;;1.60;;
21941;SDS011;11135;54.192;15.670;2023-09-19T13:27:25;4.80;;;1.63;;
21941;SDS011;11135;54.192;15.670;2023-09-19T13:30:53;4.32;;;1.50;;
21941;SDS011;11135;54.192;15.670;2023-09-19T13:34:21;5.55;;;1.60;;
21941;SDS011;11135;54.192;15.670;2023-09-19T13:37:47;5.32;;;1.65;;
21941;SDS011;11135;54.192;15.670;2023-09-19T13:41:14;6.50;;;1.75;;
21941;SDS011;11135;54.192;15.670;2023-09-19T13:44:43;4.15;;;1.25;;
21941;SDS011;11135;54.192;15.670;2023-09-19T13:48:09;6.25;;;2.28;;
21941;SDS011;11135;54.192;15.670;2023-09-19T13:51:36;5.00;;;1.60;;
21941;SDS011;11135;54.192;15.670;2023-09-19T13:55:07;4.90;;;1.65;;
21941;SDS011;11135;54.192;15.670;2023-09-19T13:58:33;5.15;;;1.45;;
21941;SDS011;11135;54.192;15.670;2023-09-19T14:02:02;4.78;;;1.90;;
21941;SDS011;11135;54.192;15.670;2023-09-19T14:05:33;3.40;;;1.83;;
21941;SDS011;11135;54.192;15.670;2023-09-19T14:09:02;5.68;;;2.00;;
21941;SDS011;11135;54.192;15.670;2023-09-19T14:12:30;4.47;;;1.67;;
21941;SDS011;11135;54.192;15.670;2023-09-19T14:15:57;4.32;;;1.58;;
21941;SDS011;11135;54.192;15.670;2023-09-19T14:19:25;4.88;;;1.80;;
21941;SDS011;11135;54.192;15.670;2023-09-19T14:22:51;5.50;;;1.45;;
21941;SDS011;11135;54.192;15.670;2023-09-19T14:26:17;6.07;;;1.77;;
21941;SDS011;11135;54.192;15.670;2023-09-19T14:29:43;6.63;;;1.60;;
21941;SDS011;11135;54.192;15.670;2023-09-19T14:33:09;3.58;;;1.70;;
21941;SDS011;11135;54.192;15.670;2023-09-19T14:36:38;4.72;;;1.48;;
21941;SDS011;11135;54.192;15.670;2023-09-19T14:40:04;4.50;;;1.73;;
21941;SDS011;11135;54.192;15.670;2023-09-19T14:43:31;4.80;;;1.83;;
21941;SDS011;11135;54.192;15.670;2023-09-19T14:46:59;5.13;;;1.45;;
21941;SDS011;11135;54.192;15.670;2023-09-19T14:50:25;3.58;;;1.65;;
21941;SDS011;11135;54.192;15.670;2023-09-19T14:53:55;4.45;;;1.80;;
21941;SDS011;11135;54.192;15.670;2023-09-19T14:57:21;5.07;;;2.13;;
21941;SDS011;11135;54.192;15.670;2023-09-19T15:00:47;7.22;;;2.38;;
21941;SDS011;11135;54.192;15.670;2023-09-19T15:04:15;4.30;;;1.70;;
21941;SDS011;11135;54.192;15.670;2023-09-19T15:07:41;4.57;;;1.88;;
21941;SDS011;11135;54.192;15.670;2023-09-19T15:11:10;5.90;;;2.15;;
21941;SDS011;11135;54.192;15.670;2023-09-19T15:14:36;6.93;;;2.67;;
21941;SDS011;11135;54.192;15.670;2023-09-19T15:18:03;5.57;;;1.40;;
21941;SDS011;11135;54.192;15.670;2023-09-19T15:21:33;6.78;;;2.00;;
21941;SDS011;11135;54.192;15.670;2023-09-19T15:25:00;5.22;;;1.88;;
21941;SDS011;11135;54.192;15.670;2023-09-19T15:28:29;4.40;;;2.00;;
21941;SDS011;11135;54.192;15.670;2023-09-19T15:31:59;9.63;;;2.05;;
21941;SDS011;11135;54.192;15.670;2023-09-19T15:35:25;6.43;;;2.40;;
21941;SDS011;11135;54.192;15.670;2023-09-19T15:38:56;4.25;;;2.20;;
21941;SDS011;11135;54.192;15.670;2023-09-19T15:42:22;6.67;;;2.00;;
21941;SDS011;11135;54.192;15.670;2023-09-19T15:45:51;5.45;;;2.15;;
21941;SDS011;11135;54.192;15.670;2023-09-19T15:49:17;5.72;;;1.98;;
21941;SDS011;11135;54.192;15.670;2023-09-19T15:52:43;4.30;;;2.00;;
21941;SDS011;11135;54.192;15.670;2023-09-19T15:56:09;6.15;;;2.13;;
21941;SDS011;11135;54.192;15.670;2023-09-19T15:59:36;5.35;;;1.90;;
21941;SDS011;11135;54.192;15.670;2023-09-19T16:03:04;3.80;;;1.95;;
21941;SDS011;11135;54.192;15.670;2023-09-19T16:06:31;8.50;;;2.15;;
21941;SDS011;11135;54.192;15.670;2023-09-19T16:09:57;6.63;;;2.35;;
21941;SDS011;11135;54.192;15.670;2023-09-19T16:13:23;6.78;;;1.98;;
21941;SDS011;11135;54.192;15.670;2023-09-19T16:16:51;3.17;;;1.90;;
21941;SDS011;11135;54.192;15.670;2023-09-19T16:20:19;5.32;;;2.45;;
21941;SDS011;11135;54.192;15.670;2023-09-19T16:23:45;7.68;;;2.92;;
21941;SDS011;11135;54.192;15.670;2023-09-19T16:27:12;5.65;;;2.20;;
21941;SDS011;11135;54.192;15.670;2023-09-19T16:30:42;10.68;;;2.25;;
21941;SDS011;11135;54.192;15.670;2023-09-19T16:34:09;7.40;;;2.42;;
21941;SDS011;11135;54.192;15.670;2023-09-19T16:37:39;5.57;;;2.63;;
21941;SDS011;11135;54.192;15.670;2023-09-19T16:41:05;5.65;;;2.50;;
21941;SDS011;11135;54.192;15.670;2023-09-19T16:44:32;6.60;;;2.33;;
21941;SDS011;11135;54.192;15.670;2023-09-19T16:47:59;4.72;;;2.35;;
21941;SDS011;11135;54.192;15.670;2023-09-19T16:51:24;6.43;;;2.42;;
21941;SDS011;11135;54.192;15.670;2023-09-19T16:54:54;6.13;;;2.33;;
21941;SDS011;11135;54.192;15.670;2023-09-19T16:58:20;5.72;;;2.70;;
21941;SDS011;11135;54.192;15.670;2023-09-19T17:01:49;6.05;;;2.88;;
21941;SDS011;11135;54.192;15.670;2023-09-19T17:05:14;6.63;;;2.78;;
21941;SDS011;11135;54.192;15.670;2023-09-19T17:08:42;7.00;;;2.45;;
21941;SDS011;11135;54.192;15.670;2023-09-19T17:12:13;6.53;;;2.55;;
21941;SDS011;11135;54.192;15.670;2023-09-19T17:15:39;8.18;;;2.50;;
21941;SDS011;11135;54.192;15.670;2023-09-19T17:19:05;4.28;;;2.50;;
21941;SDS011;11135;54.192;15.670;2023-09-19T17:22:31;4.72;;;2.50;;
21941;SDS011;11135;54.192;15.670;2023-09-19T17:26:00;5.55;;;2.50;;
21941;SDS011;11135;54.192;15.670;2023-09-19T17:29:31;8.82;;;3.35;;
21941;SDS011;11135;54.192;15.670;2023-09-19T17:32:58;4.85;;;2.53;;
21941;SDS011;11135;54.192;15.670;2023-09-19T17:36:25;4.05;;;2.45;;
21941;SDS011;11135;54.192;15.670;2023-09-19T17:39:54;6.47;;;3.00;;
21941;SDS011;11135;54.192;15.670;2023-09-19T17:43:24;6.32;;;2.40;;
21941;SDS011;11135;54.192;15.670;2023-09-19T17:46:53;5.13;;;2.17;;
21941;SDS011;11135;54.192;15.670;2023-09-19T17:50:19;4.63;;;2.20;;
21941;SDS011;11135;54.192;15.670;2023-09-19T17:53:45;4.82;;;2.33;;
21941;SDS011;11135;54.192;15.670;2023-09-19T17:57:13;6.13;;;2.30;;
21941;SDS011;11135;54.192;15.670;2023-09-19T18:00:38;5.90;;;2.40;;
21941;SDS011;11135;54.192;15.670;2023-09-19T18:04:10;5.72;;;2.88;;
21941;SDS011;11135;54.192;15.670;2023-09-19T18:07:36;7.32;;;2.20;;
21941;SDS011;11135;54.192;15.670;2023-09-19T18:11:03;7.30;;;2.50;;
21941;SDS011;11135;54.192;15.670;2023-09-19T18:14:37;10.10;;;3.22;;
21941;SDS011;11135;54.192;15.670;2023-09-19T18:18:03;5.80;;;2.63;;
21941;SDS011;11135;54.192;15.670;2023-09-19T18:21:35;4.45;;;1.90;;
21941;SDS011;11135;54.192;15.670;2023-09-19T18:25:01;4.93;;;1.80;;
21941;SDS011;11135;54.192;15.670;2023-09-19T18:28:26;4.07;;;1.67;;
21941;SDS011;11135;54.192;15.670;2023-09-19T18:31:52;6.97;;;2.10;;
21941;SDS011;11135;54.192;15.670;2023-09-19T18:35:18;9.77;;;2.05;;
21941;SDS011;11135;54.192;15.670;2023-09-19T18:38:50;6.43;;;2.30;;
21941;SDS011;11135;54.192;15.670;2023-09-19T18:42:15;5.55;;;1.80;;
21941;SDS011;11135;54.192;15.670;2023-09-19T18:45:41;6.28;;;1.92;;
21941;SDS011;11135;54.192;15.670;2023-09-19T18:49:07;4.38;;;2.08;;
21941;SDS011;11135;54.192;15.670;2023-09-19T18:52:33;4.43;;;1.80;;
21941;SDS011;11135;54.192;15.670;2023-09-19T18:56:05;7.15;;;1.90;;
21941;SDS011;11135;54.192;15.670;2023-09-19T19:02:59;6.63;;;1.75;;
21941;SDS011;11135;54.192;15.670;2023-09-19T19:06:26;7.28;;;2.00;;
21941;SDS011;11135;54.192;15.670;2023-09-19T19:09:52;7.07;;;1.90;;
21941;SDS011;11135;54.192;15.670;2023-09-19T19:13:21;5.80;;;1.95;;
21941;SDS011;11135;54.192;15.670;2023-09-19T19:16:47;9.18;;;1.95;;
21941;SDS011;11135;54.192;15.670;2023-09-19T19:20:13;6.72;;;1.80;;
21941;SDS011;11135;54.192;15.670;2023-09-19T19:23:42;4.40;;;1.60;;
21941;SDS011;11135;54.192;15.670;2023-09-19T19:27:08;7.50;;;1.65;;
21941;SDS011;11135;54.192;15.670;2023-09-19T19:30:38;5.95;;;1.60;;
21941;SDS011;11135;54.192;15.670;2023-09-19T19:34:09;7.78;;;2.03;;
21941;SDS011;11135;54.192;15.670;2023-09-19T19:37:35;5.88;;;1.83;;
21941;SDS011;11135;54.192;15.670;2023-09-19T19:41:01;5.60;;;1.90;;
21941;SDS011;11135;54.192;15.670;2023-09-19T19:44:27;7.18;;;2.03;;
21941;SDS011;11135;54.192;15.670;2023-09-19T19:47:56;6.03;;;2.05;;
21941;SDS011;11135;54.192;15.670;2023-09-19T19:51:22;2.72;;;1.52;;
21941;SDS011;11135;54.192;15.670;2023-09-19T19:54:49;5.53;;;2.05;;
21941;SDS011;11135;54.192;15.670;2023-09-19T19:58:15;7.10;;;2.03;;
21941;SDS011;11135;54.192;15.670;2023-09-19T20:01:44;6.22;;;1.98;;
21941;SDS011;11135;54.192;15.670;2023-09-19T20:05:12;3.58;;;1.83;;
21941;SDS011;11135;54.192;15.670;2023-09-19T20:08:38;5.05;;;1.95;;
21941;SDS011;11135;54.192;15.670;2023-09-19T20:12:07;6.72;;;2.35;;
21941;SDS011;11135;54.192;15.670;2023-09-19T20:15:33;7.97;;;1.75;;
21941;SDS011;11135;54.192;15.670;2023-09-19T20:19:00;8.23;;;1.95;;
21941;SDS011;11135;54.192;15.670;2023-09-19T20:22:29;6.68;;;2.17;;
21941;SDS011;11135;54.192;15.670;2023-09-19T20:25:55;5.90;;;2.05;;
21941;SDS011;11135;54.192;15.670;2023-09-19T20:29:27;4.45;;;1.75;;
21941;SDS011;11135;54.192;15.670;2023-09-19T20:32:53;4.63;;;1.90;;
21941;SDS011;11135;54.192;15.670;2023-09-19T20:36:24;6.82;;;2.70;;
21941;SDS011;11135;54.192;15.670;2023-09-19T20:39:55;4.82;;;2.00;;
21941;SDS011;11135;54.192;15.670;2023-09-19T20:43:22;7.75;;;2.10;;
21941;SDS011;11135;54.192;15.670;2023-09-19T20:46:47;7.90;;;2.80;;
21941;SDS011;11135;54.192;15.670;2023-09-19T20:50:17;7.00;;;2.28;;
21941;SDS011;11135;54.192;15.670;2023-09-19T20:53:47;7.05;;;1.90;;
21941;SDS011;11135;54.192;15.670;2023-09-19T20:57:16;5.63;;;2.47;;